sensor_id;sensor_type;location;lat;lon;timestamp;P1;durP1;ratioP1;P2;durP2;ratioP2
20478;SDS011;10398;52.490;13.434;2022-11-15T00:02:09;39.87;;;15.00;;
20478;SDS011;10398;52.490;13.434;2022-11-15T00:04:34;39.47;;;14.87;;
20478;SDS011;10398;52.490;13.434;2022-11-15T00:07:00;41.87;;;16.17;;
20478;SDS011;10398;52.490;13.434;2022-11-15T00:09:26;34.97;;;15.97;;
20478;SDS011;10398;52.490;13.434;2022-11-15T00:11:54;36.53;;;15.63;;
20478;SDS011;10398;52.490;13.434;2022-11-15T00:14:20;34.23;;;14.07;;
20478;SDS011;10398;52.490;13.434;2022-11-15T00:16:46;40.20;;;15.50;;
20478;SDS011;10398;52.490;13.434;2022-11-15T00:19:11;35.13;;;15.57;;
20478;SDS011;10398;52.490;13.434;2022-11-15T00:21:37;36.27;;;15.80;;
20478;SDS011;10398;52.490;13.434;2022-11-15T00:24:02;35.50;;;15.30;;
20478;SDS011;10398;52.490;13.434;2022-11-15T00:26:28;38.23;;;15.53;;
20478;SDS011;10398;52.490;13.434;2022-11-15T00:28:54;36.50;;;15.63;;
20478;SDS011;10398;52.490;13.434;2022-11-15T00:31:19;35.97;;;14.73;;
20478;SDS011;10398;52.490;13.434;2022-11-15T00:33:45;31.60;;;14.27;;
20478;SDS011;10398;52.490;13.434;2022-11-15T00:36:11;37.27;;;15.43;;
20478;SDS011;10398;52.490;13.434;2022-11-15T00:38:38;35.00;;;14.23;;
20478;SDS011;10398;52.490;13.434;2022-11-15T00:41:04;33.87;;;14.40;;
20478;SDS011;10398;52.490;13.434;2022-11-15T00:43:31;39.13;;;15.03;;
20478;SDS011;10398;52.490;13.434;2022-11-15T00:45:57;40.67;;;16.17;;
20478;SDS011;10398;52.490;13.434;2022-11-15T00:48:23;39.17;;;16.27;;
20478;SDS011;10398;52.490;13.434;2022-11-15T00:50:49;35.00;;;14.50;;
20478;SDS011;10398;52.490;13.434;2022-11-15T00:53:15;42.60;;;17.30;;
20478;SDS011;10398;52.490;13.434;2022-11-15T00:55:41;35.27;;;15.20;;
20478;SDS011;10398;52.490;13.434;2022-11-15T00:58:07;37.97;;;15.67;;
20478;SDS011;10398;52.490;13.434;2022-11-15T01:00:33;36.90;;;16.83;;
20478;SDS011;10398;52.490;13.434;2022-11-15T01:03:02;45.00;;;16.50;;
20478;SDS011;10398;52.490;13.434;2022-11-15T01:05:28;37.40;;;15.93;;
20478;SDS011;10398;52.490;13.434;2022-11-15T01:07:54;36.83;;;15.17;;
20478;SDS011;10398;52.490;13.434;2022-11-15T01:10:21;39.23;;;15.43;;
20478;SDS011;10398;52.490;13.434;2022-11-15T01:12:47;36.37;;;15.10;;
20478;SDS011;10398;52.490;13.434;2022-11-15T01:15:13;36.87;;;15.93;;
20478;SDS011;10398;52.490;13.434;2022-11-15T01:17:39;33.90;;;14.63;;
20478;SDS011;10398;52.490;13.434;2022-11-15T01:20:05;44.50;;;16.33;;
20478;SDS011;10398;52.490;13.434;2022-11-15T01:22:31;39.63;;;15.07;;
20478;SDS011;10398;52.490;13.434;2022-11-15T01:24:57;34.90;;;14.53;;
20478;SDS011;10398;52.490;13.434;2022-11-15T01:27:23;35.60;;;15.67;;
20478;SDS011;10398;52.490;13.434;2022-11-15T01:29:48;47.17;;;16.30;;
20478;SDS011;10398;52.490;13.434;2022-11-15T01:32:14;33.90;;;15.27;;
20478;SDS011;10398;52.490;13.434;2022-11-15T01:34:40;42.07;;;16.90;;
20478;SDS011;10398;52.490;13.434;2022-11-15T01:37:05;35.23;;;14.90;;
20478;SDS011;10398;52.490;13.434;2022-11-15T01:39:31;36.10;;;16.30;;
20478;SDS011;10398;52.490;13.434;2022-11-15T01:41:57;35.07;;;13.93;;
20478;SDS011;10398;52.490;13.434;2022-11-15T01:47:20;35.83;;;14.93;;
20478;SDS011;10398;52.490;13.434;2022-11-15T01:49:55;43.43;;;16.03;;
20478;SDS011;10398;52.490;13.434;2022-11-15T01:52:21;41.53;;;15.83;;
20478;SDS011;10398;52.490;13.434;2022-11-15T01:54:53;37.13;;;15.23;;
20478;SDS011;10398;52.490;13.434;2022-11-15T01:57:39;37.80;;;16.47;;
20478;SDS011;10398;52.490;13.434;2022-11-15T02:00:07;39.97;;;15.83;;
20478;SDS011;10398;52.490;13.434;2022-11-15T02:02:34;38.47;;;15.90;;
20478;SDS011;10398;52.490;13.434;2022-11-15T02:05:02;37.47;;;16.03;;
20478;SDS011;10398;52.490;13.434;2022-11-15T02:07:28;36.10;;;15.40;;
20478;SDS011;10398;52.490;13.434;2022-11-15T02:09:56;37.33;;;16.60;;
20478;SDS011;10398;52.490;13.434;2022-11-15T02:12:24;35.77;;;15.40;;
20478;SDS011;10398;52.490;13.434;2022-11-15T02:14:51;33.97;;;14.20;;
20478;SDS011;10398;52.490;13.434;2022-11-15T02:17:46;41.23;;;17.03;;
20478;SDS011;10398;52.490;13.434;2022-11-15T02:31:03;34.10;;;14.90;;
20478;SDS011;10398;52.490;13.434;2022-11-15T02:41:56;44.83;;;17.30;;
20478;SDS011;10398;52.490;13.434;2022-11-15T02:44:33;46.07;;;16.97;;
20478;SDS011;10398;52.490;13.434;2022-11-15T02:47:04;38.07;;;16.33;;
20478;SDS011;10398;52.490;13.434;2022-11-15T02:49:50;38.47;;;16.00;;
20478;SDS011;10398;52.490;13.434;2022-11-15T02:52:22;34.53;;;15.97;;
20478;SDS011;10398;52.490;13.434;2022-11-15T02:54:57;40.73;;;16.23;;
20478;SDS011;10398;52.490;13.434;2022-11-15T02:57:35;36.73;;;16.13;;
20478;SDS011;10398;52.490;13.434;2022-11-15T03:00:17;36.77;;;15.63;;
20478;SDS011;10398;52.490;13.434;2022-11-15T03:02:49;38.83;;;15.67;;
20478;SDS011;10398;52.490;13.434;2022-11-15T03:08:05;38.57;;;15.37;;
20478;SDS011;10398;52.490;13.434;2022-11-15T03:16:11;37.13;;;14.83;;
20478;SDS011;10398;52.490;13.434;2022-11-15T03:21:54;39.90;;;15.47;;
20478;SDS011;10398;52.490;13.434;2022-11-15T03:24:22;41.93;;;16.67;;
20478;SDS011;10398;52.490;13.434;2022-11-15T03:26:50;37.87;;;15.37;;
20478;SDS011;10398;52.490;13.434;2022-11-15T03:29:20;37.53;;;15.67;;
20478;SDS011;10398;52.490;13.434;2022-11-15T03:31:52;41.83;;;16.07;;
20478;SDS011;10398;52.490;13.434;2022-11-15T03:34:27;42.67;;;16.47;;
20478;SDS011;10398;52.490;13.434;2022-11-15T03:36:57;43.40;;;16.27;;
20478;SDS011;10398;52.490;13.434;2022-11-15T03:39:23;44.67;;;16.47;;
20478;SDS011;10398;52.490;13.434;2022-11-15T03:44:52;37.73;;;16.60;;
20478;SDS011;10398;52.490;13.434;2022-11-15T03:47:21;37.30;;;16.23;;
20478;SDS011;10398;52.490;13.434;2022-11-15T03:49:50;36.83;;;16.40;;
20478;SDS011;10398;52.490;13.434;2022-11-15T03:52:19;37.83;;;17.00;;
20478;SDS011;10398;52.490;13.434;2022-11-15T03:54:55;42.43;;;17.07;;
20478;SDS011;10398;52.490;13.434;2022-11-15T03:57:25;37.33;;;16.80;;
20478;SDS011;10398;52.490;13.434;2022-11-15T03:59:51;46.13;;;17.57;;
20478;SDS011;10398;52.490;13.434;2022-11-15T04:02:16;38.30;;;16.37;;
20478;SDS011;10398;52.490;13.434;2022-11-15T04:04:42;36.33;;;15.07;;
20478;SDS011;10398;52.490;13.434;2022-11-15T04:07:08;34.67;;;16.37;;
20478;SDS011;10398;52.490;13.434;2022-11-15T04:09:33;38.70;;;15.67;;
20478;SDS011;10398;52.490;13.434;2022-11-15T04:12:19;35.33;;;15.30;;
20478;SDS011;10398;52.490;13.434;2022-11-15T04:14:56;42.57;;;17.43;;
20478;SDS011;10398;52.490;13.434;2022-11-15T04:17:32;39.83;;;16.30;;
20478;SDS011;10398;52.490;13.434;2022-11-15T04:19:58;38.70;;;16.97;;
20478;SDS011;10398;52.490;13.434;2022-11-15T04:22:42;41.17;;;15.20;;
20478;SDS011;10398;52.490;13.434;2022-11-15T04:25:26;36.47;;;14.73;;
20478;SDS011;10398;52.490;13.434;2022-11-15T04:27:52;37.83;;;16.03;;
20478;SDS011;10398;52.490;13.434;2022-11-15T04:30:17;34.10;;;15.37;;
20478;SDS011;10398;52.490;13.434;2022-11-15T04:32:43;39.40;;;16.47;;
20478;SDS011;10398;52.490;13.434;2022-11-15T04:35:08;39.17;;;15.77;;
20478;SDS011;10398;52.490;13.434;2022-11-15T04:37:37;39.07;;;16.83;;
20478;SDS011;10398;52.490;13.434;2022-11-15T04:40:03;39.07;;;16.07;;
20478;SDS011;10398;52.490;13.434;2022-11-15T04:42:29;34.80;;;14.97;;
20478;SDS011;10398;52.490;13.434;2022-11-15T04:44:55;40.80;;;17.47;;
20478;SDS011;10398;52.490;13.434;2022-11-15T04:47:20;39.00;;;15.40;;
20478;SDS011;10398;52.490;13.434;2022-11-15T04:49:46;39.17;;;15.57;;
20478;SDS011;10398;52.490;13.434;2022-11-15T04:52:12;37.60;;;15.80;;
20478;SDS011;10398;52.490;13.434;2022-11-15T04:54:37;43.57;;;16.73;;
20478;SDS011;10398;52.490;13.434;2022-11-15T04:57:03;49.67;;;20.10;;
20478;SDS011;10398;52.490;13.434;2022-11-15T04:59:29;43.50;;;19.23;;
20478;SDS011;10398;52.490;13.434;2022-11-15T05:01:54;50.93;;;19.00;;
20478;SDS011;10398;52.490;13.434;2022-11-15T05:04:20;41.40;;;16.00;;
20478;SDS011;10398;52.490;13.434;2022-11-15T05:06:46;36.77;;;15.70;;
20478;SDS011;10398;52.490;13.434;2022-11-15T05:09:13;40.83;;;16.43;;
20478;SDS011;10398;52.490;13.434;2022-11-15T05:11:39;36.73;;;15.50;;
20478;SDS011;10398;52.490;13.434;2022-11-15T05:14:04;36.47;;;15.97;;
20478;SDS011;10398;52.490;13.434;2022-11-15T05:16:30;35.93;;;15.37;;
20478;SDS011;10398;52.490;13.434;2022-11-15T05:18:59;38.53;;;15.47;;
20478;SDS011;10398;52.490;13.434;2022-11-15T05:21:24;39.17;;;16.97;;
20478;SDS011;10398;52.490;13.434;2022-11-15T05:23:50;36.17;;;15.27;;
20478;SDS011;10398;52.490;13.434;2022-11-15T05:26:16;48.83;;;17.40;;
20478;SDS011;10398;52.490;13.434;2022-11-15T05:28:43;37.87;;;17.47;;
20478;SDS011;10398;52.490;13.434;2022-11-15T05:31:10;38.23;;;15.43;;
20478;SDS011;10398;52.490;13.434;2022-11-15T05:33:38;37.90;;;15.53;;
20478;SDS011;10398;52.490;13.434;2022-11-15T05:38:55;51.33;;;16.57;;
20478;SDS011;10398;52.490;13.434;2022-11-15T05:41:22;38.30;;;16.17;;
20478;SDS011;10398;52.490;13.434;2022-11-15T05:43:57;46.77;;;19.57;;
20478;SDS011;10398;52.490;13.434;2022-11-15T05:46:24;41.23;;;16.87;;
20478;SDS011;10398;52.490;13.434;2022-11-15T05:48:50;40.27;;;17.33;;
20478;SDS011;10398;52.490;13.434;2022-11-15T05:51:18;40.27;;;16.63;;
20478;SDS011;10398;52.490;13.434;2022-11-15T05:53:46;43.50;;;16.87;;
20478;SDS011;10398;52.490;13.434;2022-11-15T05:56:13;41.67;;;16.97;;
20478;SDS011;10398;52.490;13.434;2022-11-15T05:58:39;33.63;;;15.90;;
20478;SDS011;10398;52.490;13.434;2022-11-15T06:01:05;37.53;;;16.43;;
20478;SDS011;10398;52.490;13.434;2022-11-15T06:03:30;42.20;;;18.17;;
20478;SDS011;10398;52.490;13.434;2022-11-15T06:05:56;41.10;;;17.57;;
20478;SDS011;10398;52.490;13.434;2022-11-15T06:08:22;41.10;;;17.80;;
20478;SDS011;10398;52.490;13.434;2022-11-15T06:10:48;42.53;;;18.60;;
20478;SDS011;10398;52.490;13.434;2022-11-15T06:13:13;43.53;;;18.57;;
20478;SDS011;10398;52.490;13.434;2022-11-15T06:15:39;39.57;;;18.70;;
20478;SDS011;10398;52.490;13.434;2022-11-15T06:18:05;46.43;;;18.10;;
20478;SDS011;10398;52.490;13.434;2022-11-15T06:20:30;43.83;;;18.17;;
20478;SDS011;10398;52.490;13.434;2022-11-15T06:22:57;46.27;;;18.67;;
20478;SDS011;10398;52.490;13.434;2022-11-15T06:25:23;43.17;;;17.87;;
20478;SDS011;10398;52.490;13.434;2022-11-15T06:27:53;43.30;;;16.93;;
20478;SDS011;10398;52.490;13.434;2022-11-15T06:30:19;40.00;;;15.53;;
20478;SDS011;10398;52.490;13.434;2022-11-15T06:32:46;47.20;;;17.10;;
20478;SDS011;10398;52.490;13.434;2022-11-15T06:35:12;42.77;;;16.87;;
20478;SDS011;10398;52.490;13.434;2022-11-15T06:37:38;42.67;;;17.00;;
20478;SDS011;10398;52.490;13.434;2022-11-15T06:40:04;35.40;;;17.07;;
20478;SDS011;10398;52.490;13.434;2022-11-15T06:42:30;40.87;;;17.20;;
20478;SDS011;10398;52.490;13.434;2022-11-15T06:44:56;41.80;;;16.77;;
20478;SDS011;10398;52.490;13.434;2022-11-15T06:47:22;35.97;;;16.93;;
20478;SDS011;10398;52.490;13.434;2022-11-15T06:49:47;41.77;;;18.37;;
20478;SDS011;10398;52.490;13.434;2022-11-15T06:52:13;37.43;;;17.10;;
20478;SDS011;10398;52.490;13.434;2022-11-15T06:54:39;42.30;;;18.27;;
20478;SDS011;10398;52.490;13.434;2022-11-15T06:57:04;42.83;;;18.03;;
20478;SDS011;10398;52.490;13.434;2022-11-15T06:59:30;42.60;;;17.83;;
20478;SDS011;10398;52.490;13.434;2022-11-15T07:01:56;42.20;;;17.83;;
20478;SDS011;10398;52.490;13.434;2022-11-15T07:04:21;38.77;;;16.70;;
20478;SDS011;10398;52.490;13.434;2022-11-15T07:06:47;43.33;;;17.90;;
20478;SDS011;10398;52.490;13.434;2022-11-15T07:09:14;42.20;;;17.33;;
20478;SDS011;10398;52.490;13.434;2022-11-15T07:11:40;37.50;;;16.63;;
20478;SDS011;10398;52.490;13.434;2022-11-15T07:14:06;41.37;;;17.03;;
20478;SDS011;10398;52.490;13.434;2022-11-15T07:16:31;43.80;;;16.87;;
20478;SDS011;10398;52.490;13.434;2022-11-15T07:18:57;45.40;;;17.97;;
20478;SDS011;10398;52.490;13.434;2022-11-15T07:21:23;42.97;;;16.63;;
20478;SDS011;10398;52.490;13.434;2022-11-15T07:23:49;45.40;;;17.80;;
20478;SDS011;10398;52.490;13.434;2022-11-15T07:26:14;41.77;;;17.37;;
20478;SDS011;10398;52.490;13.434;2022-11-15T07:28:40;39.47;;;16.73;;
20478;SDS011;10398;52.490;13.434;2022-11-15T07:31:06;40.57;;;16.53;;
20478;SDS011;10398;52.490;13.434;2022-11-15T07:33:33;42.33;;;17.47;;
20478;SDS011;10398;52.490;13.434;2022-11-15T07:36:00;43.10;;;16.60;;
20478;SDS011;10398;52.490;13.434;2022-11-15T07:38:26;39.13;;;17.03;;
20478;SDS011;10398;52.490;13.434;2022-11-15T07:41:00;42.40;;;16.93;;
20478;SDS011;10398;52.490;13.434;2022-11-15T07:43:26;41.37;;;17.83;;
20478;SDS011;10398;52.490;13.434;2022-11-15T07:45:53;40.03;;;15.90;;
20478;SDS011;10398;52.490;13.434;2022-11-15T07:48:19;41.40;;;17.90;;
20478;SDS011;10398;52.490;13.434;2022-11-15T07:50:44;40.07;;;17.30;;
20478;SDS011;10398;52.490;13.434;2022-11-15T07:53:10;41.97;;;18.93;;
20478;SDS011;10398;52.490;13.434;2022-11-15T07:55:36;45.60;;;18.13;;
20478;SDS011;10398;52.490;13.434;2022-11-15T07:58:07;45.70;;;18.03;;
20478;SDS011;10398;52.490;13.434;2022-11-15T08:00:35;42.90;;;17.90;;
20478;SDS011;10398;52.490;13.434;2022-11-15T08:03:05;42.43;;;17.77;;
20478;SDS011;10398;52.490;13.434;2022-11-15T08:05:31;40.63;;;17.97;;
20478;SDS011;10398;52.490;13.434;2022-11-15T08:07:58;43.03;;;18.67;;
20478;SDS011;10398;52.490;13.434;2022-11-15T08:10:24;44.47;;;19.07;;
20478;SDS011;10398;52.490;13.434;2022-11-15T08:13:03;41.77;;;18.07;;
20478;SDS011;10398;52.490;13.434;2022-11-15T08:15:31;42.33;;;17.97;;
20478;SDS011;10398;52.490;13.434;2022-11-15T08:17:58;36.10;;;17.13;;
20478;SDS011;10398;52.490;13.434;2022-11-15T08:20:26;37.83;;;17.13;;
20478;SDS011;10398;52.490;13.434;2022-11-15T08:22:55;37.93;;;16.40;;
20478;SDS011;10398;52.490;13.434;2022-11-15T08:25:22;36.87;;;16.63;;
20478;SDS011;10398;52.490;13.434;2022-11-15T08:27:51;38.93;;;17.13;;
20478;SDS011;10398;52.490;13.434;2022-11-15T08:30:22;43.20;;;16.47;;
20478;SDS011;10398;52.490;13.434;2022-11-15T08:32:49;39.40;;;17.63;;
20478;SDS011;10398;52.490;13.434;2022-11-15T08:35:16;37.00;;;17.07;;
20478;SDS011;10398;52.490;13.434;2022-11-15T08:37:42;39.80;;;15.87;;
20478;SDS011;10398;52.490;13.434;2022-11-15T08:40:07;36.83;;;15.67;;
20478;SDS011;10398;52.490;13.434;2022-11-15T08:42:34;38.13;;;16.13;;
20478;SDS011;10398;52.490;13.434;2022-11-15T08:45:00;32.80;;;15.37;;
20478;SDS011;10398;52.490;13.434;2022-11-15T08:47:26;35.20;;;16.03;;
20478;SDS011;10398;52.490;13.434;2022-11-15T08:49:51;35.03;;;15.20;;
20478;SDS011;10398;52.490;13.434;2022-11-15T08:52:17;34.30;;;16.57;;
20478;SDS011;10398;52.490;13.434;2022-11-15T08:54:43;34.70;;;15.43;;
20478;SDS011;10398;52.490;13.434;2022-11-15T08:57:09;28.57;;;13.67;;
20478;SDS011;10398;52.490;13.434;2022-11-15T08:59:35;30.83;;;14.57;;
20478;SDS011;10398;52.490;13.434;2022-11-15T09:02:01;35.73;;;16.03;;
20478;SDS011;10398;52.490;13.434;2022-11-15T09:04:27;33.23;;;14.87;;
20478;SDS011;10398;52.490;13.434;2022-11-15T09:06:53;37.30;;;15.67;;
20478;SDS011;10398;52.490;13.434;2022-11-15T09:09:18;34.37;;;14.57;;
20478;SDS011;10398;52.490;13.434;2022-11-15T09:11:44;29.03;;;13.17;;
20478;SDS011;10398;52.490;13.434;2022-11-15T09:14:13;33.03;;;14.87;;
20478;SDS011;10398;52.490;13.434;2022-11-15T09:16:39;30.70;;;14.60;;
20478;SDS011;10398;52.490;13.434;2022-11-15T09:19:05;32.57;;;14.20;;
20478;SDS011;10398;52.490;13.434;2022-11-15T09:21:31;28.27;;;13.90;;
20478;SDS011;10398;52.490;13.434;2022-11-15T09:23:57;31.50;;;12.70;;
20478;SDS011;10398;52.490;13.434;2022-11-15T09:26:23;29.00;;;13.17;;
20478;SDS011;10398;52.490;13.434;2022-11-15T09:28:49;23.50;;;12.67;;
20478;SDS011;10398;52.490;13.434;2022-11-15T09:31:15;28.83;;;13.33;;
20478;SDS011;10398;52.490;13.434;2022-11-15T09:33:43;28.90;;;13.97;;
20478;SDS011;10398;52.490;13.434;2022-11-15T09:36:09;32.63;;;14.33;;
20478;SDS011;10398;52.490;13.434;2022-11-15T09:38:35;27.10;;;12.87;;
20478;SDS011;10398;52.490;13.434;2022-11-15T09:46:11;23.20;;;10.67;;
20478;SDS011;10398;52.490;13.434;2022-11-15T09:48:58;23.50;;;10.90;;
20478;SDS011;10398;52.490;13.434;2022-11-15T09:54:09;24.60;;;10.63;;
20478;SDS011;10398;52.490;13.434;2022-11-15T09:56:48;22.10;;;10.80;;
20478;SDS011;10398;52.490;13.434;2022-11-15T10:04:56;21.03;;;10.07;;
20478;SDS011;10398;52.490;13.434;2022-11-15T10:07:28;22.57;;;11.07;;
20478;SDS011;10398;52.490;13.434;2022-11-15T10:10:09;20.20;;;9.40;;
20478;SDS011;10398;52.490;13.434;2022-11-15T10:12:54;23.33;;;10.17;;
20478;SDS011;10398;52.490;13.434;2022-11-15T10:15:20;17.90;;;9.07;;
20478;SDS011;10398;52.490;13.434;2022-11-15T10:20:30;18.77;;;9.90;;
20478;SDS011;10398;52.490;13.434;2022-11-15T10:23:10;20.45;;;10.50;;
20478;SDS011;10398;52.490;13.434;2022-11-15T10:25:38;21.53;;;9.90;;
20478;SDS011;10398;52.490;13.434;2022-11-15T10:30:46;17.42;;;9.75;;
20478;SDS011;10398;52.490;13.434;2022-11-15T10:33:25;18.27;;;10.18;;
20478;SDS011;10398;52.490;13.434;2022-11-15T10:44:41;16.90;;;8.23;;
20478;SDS011;10398;52.490;13.434;2022-11-15T10:49:22;17.65;;;9.48;;
20478;SDS011;10398;52.490;13.434;2022-11-15T10:51:57;18.88;;;9.35;;
20478;SDS011;10398;52.490;13.434;2022-11-15T10:55:27;18.87;;;9.73;;
20478;SDS011;10398;52.490;13.434;2022-11-15T10:57:54;19.33;;;9.07;;
20478;SDS011;10398;52.490;13.434;2022-11-15T11:00:28;16.50;;;8.90;;
20478;SDS011;10398;52.490;13.434;2022-11-15T11:05:27;20.77;;;9.63;;
20478;SDS011;10398;52.490;13.434;2022-11-15T11:08:23;19.27;;;9.50;;
20478;SDS011;10398;52.490;13.434;2022-11-15T11:10:52;19.07;;;9.50;;
20478;SDS011;10398;52.490;13.434;2022-11-15T11:18:38;22.37;;;9.77;;
20478;SDS011;10398;52.490;13.434;2022-11-15T11:21:18;19.97;;;9.77;;
20478;SDS011;10398;52.490;13.434;2022-11-15T11:23:52;22.60;;;9.97;;
20478;SDS011;10398;52.490;13.434;2022-11-15T11:42:58;17.97;;;8.53;;
20478;SDS011;10398;52.490;13.434;2022-11-15T11:50:36;15.77;;;8.25;;
20478;SDS011;10398;52.490;13.434;2022-11-15T11:53:05;18.77;;;8.82;;
20478;SDS011;10398;52.490;13.434;2022-11-15T11:55:55;15.77;;;7.97;;
20478;SDS011;10398;52.490;13.434;2022-11-15T11:58:44;17.60;;;8.98;;
20478;SDS011;10398;52.490;13.434;2022-11-15T12:01:18;15.50;;;8.32;;
20478;SDS011;10398;52.490;13.434;2022-11-15T12:06:33;18.55;;;8.98;;
20478;SDS011;10398;52.490;13.434;2022-11-15T12:10:05;17.33;;;8.52;;
20478;SDS011;10398;52.490;13.434;2022-11-15T12:17:35;16.23;;;8.70;;
20478;SDS011;10398;52.490;13.434;2022-11-15T12:20:06;18.73;;;8.70;;
20478;SDS011;10398;52.490;13.434;2022-11-15T12:27:57;14.13;;;7.68;;
20478;SDS011;10398;52.490;13.434;2022-11-15T12:30:40;17.55;;;7.95;;
20478;SDS011;10398;52.490;13.434;2022-11-15T12:33:29;19.73;;;8.45;;
20478;SDS011;10398;52.490;13.434;2022-11-15T12:36:11;19.20;;;9.15;;
20478;SDS011;10398;52.490;13.434;2022-11-15T12:43:53;18.80;;;9.33;;
20478;SDS011;10398;52.490;13.434;2022-11-15T13:04:46;13.30;;;7.75;;
20478;SDS011;10398;52.490;13.434;2022-11-15T13:10:00;15.63;;;7.93;;
20478;SDS011;10398;52.490;13.434;2022-11-15T13:17:47;19.87;;;8.63;;
20478;SDS011;10398;52.490;13.434;2022-11-15T13:22:44;16.40;;;8.23;;
20478;SDS011;10398;52.490;13.434;2022-11-15T13:28:20;19.03;;;8.53;;
20478;SDS011;10398;52.490;13.434;2022-11-15T13:30:53;18.97;;;8.80;;
20478;SDS011;10398;52.490;13.434;2022-11-15T13:33:31;15.80;;;7.93;;
20478;SDS011;10398;52.490;13.434;2022-11-15T13:36:12;21.90;;;8.30;;
20478;SDS011;10398;52.490;13.434;2022-11-15T13:38:54;15.73;;;7.47;;
20478;SDS011;10398;52.490;13.434;2022-11-15T13:41:26;16.63;;;7.83;;
20478;SDS011;10398;52.490;13.434;2022-11-15T13:43:53;16.63;;;8.03;;
20478;SDS011;10398;52.490;13.434;2022-11-15T13:48:57;16.50;;;7.77;;
20478;SDS011;10398;52.490;13.434;2022-11-15T13:51:27;18.23;;;7.77;;
20478;SDS011;10398;52.490;13.434;2022-11-15T13:54:06;20.00;;;7.33;;
20478;SDS011;10398;52.490;13.434;2022-11-15T13:56:40;14.40;;;7.47;;
20478;SDS011;10398;52.490;13.434;2022-11-15T13:59:10;16.17;;;7.87;;
20478;SDS011;10398;52.490;13.434;2022-11-15T14:02:14;16.40;;;7.77;;
20478;SDS011;10398;52.490;13.434;2022-11-15T14:04:55;19.23;;;9.10;;
20478;SDS011;10398;52.490;13.434;2022-11-15T14:07:24;18.23;;;8.87;;
20478;SDS011;10398;52.490;13.434;2022-11-15T14:09:52;18.40;;;8.00;;
20478;SDS011;10398;52.490;13.434;2022-11-15T14:14:52;18.80;;;8.97;;
20478;SDS011;10398;52.490;13.434;2022-11-15T14:17:20;18.60;;;8.57;;
20478;SDS011;10398;52.490;13.434;2022-11-15T14:19:55;18.30;;;8.63;;
20478;SDS011;10398;52.490;13.434;2022-11-15T14:22:22;17.77;;;8.90;;
20478;SDS011;10398;52.490;13.434;2022-11-15T14:27:38;14.80;;;7.40;;
20478;SDS011;10398;52.490;13.434;2022-11-15T14:30:05;16.93;;;8.17;;
20478;SDS011;10398;52.490;13.434;2022-11-15T14:33:11;17.00;;;7.87;;
20478;SDS011;10398;52.490;13.434;2022-11-15T14:35:23;18.97;;;8.13;;
20478;SDS011;10398;52.490;13.434;2022-11-15T14:37:49;19.47;;;8.53;;
20478;SDS011;10398;52.490;13.434;2022-11-15T14:40:16;18.43;;;8.63;;
20478;SDS011;10398;52.490;13.434;2022-11-15T14:42:46;23.07;;;9.20;;
20478;SDS011;10398;52.490;13.434;2022-11-15T14:45:14;19.70;;;8.67;;
20478;SDS011;10398;52.490;13.434;2022-11-15T14:47:41;16.87;;;7.50;;
20478;SDS011;10398;52.490;13.434;2022-11-15T14:50:14;15.97;;;8.07;;
20478;SDS011;10398;52.490;13.434;2022-11-15T14:52:44;19.57;;;9.00;;
20478;SDS011;10398;52.490;13.434;2022-11-15T14:55:12;19.40;;;7.70;;
20478;SDS011;10398;52.490;13.434;2022-11-15T14:57:45;16.97;;;8.40;;
20478;SDS011;10398;52.490;13.434;2022-11-15T15:00:11;22.47;;;9.47;;
20478;SDS011;10398;52.490;13.434;2022-11-15T15:02:38;22.60;;;9.10;;
20478;SDS011;10398;52.490;13.434;2022-11-15T15:05:17;18.80;;;9.20;;
20478;SDS011;10398;52.490;13.434;2022-11-15T15:07:56;19.77;;;8.57;;
20478;SDS011;10398;52.490;13.434;2022-11-15T15:10:22;22.00;;;9.27;;
20478;SDS011;10398;52.490;13.434;2022-11-15T15:12:49;18.87;;;8.90;;
20478;SDS011;10398;52.490;13.434;2022-11-15T15:15:20;18.13;;;7.77;;
20478;SDS011;10398;52.490;13.434;2022-11-15T15:17:49;19.97;;;9.30;;
20478;SDS011;10398;52.490;13.434;2022-11-15T15:20:15;30.97;;;11.90;;
20478;SDS011;10398;52.490;13.434;2022-11-15T15:22:41;24.90;;;11.77;;
20478;SDS011;10398;52.490;13.434;2022-11-15T15:25:20;26.67;;;12.07;;
20478;SDS011;10398;52.490;13.434;2022-11-15T15:27:48;23.40;;;9.60;;
20478;SDS011;10398;52.490;13.434;2022-11-15T15:30:14;16.23;;;8.30;;
20478;SDS011;10398;52.490;13.434;2022-11-15T15:32:40;16.37;;;8.33;;
20478;SDS011;10398;52.490;13.434;2022-11-15T15:35:05;19.50;;;9.30;;
20478;SDS011;10398;52.490;13.434;2022-11-15T15:37:35;20.13;;;9.57;;
20478;SDS011;10398;52.490;13.434;2022-11-15T15:40:01;16.40;;;7.97;;
20478;SDS011;10398;52.490;13.434;2022-11-15T15:42:26;21.20;;;8.07;;
20478;SDS011;10398;52.490;13.434;2022-11-15T15:44:52;20.60;;;9.10;;
20478;SDS011;10398;52.490;13.434;2022-11-15T15:47:19;22.03;;;9.10;;
20478;SDS011;10398;52.490;13.434;2022-11-15T15:49:46;23.10;;;9.50;;
20478;SDS011;10398;52.490;13.434;2022-11-15T15:52:13;22.67;;;10.80;;
20478;SDS011;10398;52.490;13.434;2022-11-15T15:54:38;18.73;;;9.03;;
20478;SDS011;10398;52.490;13.434;2022-11-15T15:57:05;17.90;;;8.73;;
20478;SDS011;10398;52.490;13.434;2022-11-15T15:59:31;20.97;;;9.47;;
20478;SDS011;10398;52.490;13.434;2022-11-15T16:01:57;19.33;;;8.80;;
20478;SDS011;10398;52.490;13.434;2022-11-15T16:04:23;19.40;;;9.17;;
20478;SDS011;10398;52.490;13.434;2022-11-15T16:06:48;20.40;;;9.87;;
20478;SDS011;10398;52.490;13.434;2022-11-15T16:09:18;21.60;;;9.57;;
20478;SDS011;10398;52.490;13.434;2022-11-15T16:12:04;21.43;;;9.47;;
20478;SDS011;10398;52.490;13.434;2022-11-15T16:14:30;25.03;;;10.07;;
20478;SDS011;10398;52.490;13.434;2022-11-15T16:16:56;18.47;;;9.57;;
20478;SDS011;10398;52.490;13.434;2022-11-15T16:19:22;20.43;;;9.87;;
20478;SDS011;10398;52.490;13.434;2022-11-15T16:21:48;20.50;;;9.43;;
20478;SDS011;10398;52.490;13.434;2022-11-15T16:24:14;17.77;;;9.23;;
20478;SDS011;10398;52.490;13.434;2022-11-15T16:26:39;20.83;;;9.13;;
20478;SDS011;10398;52.490;13.434;2022-11-15T16:29:05;54.50;;;22.93;;
20478;SDS011;10398;52.490;13.434;2022-11-15T16:31:34;26.50;;;10.97;;
20478;SDS011;10398;52.490;13.434;2022-11-15T16:33:59;45.30;;;17.23;;
20478;SDS011;10398;52.490;13.434;2022-11-15T16:36:25;29.70;;;13.03;;
20478;SDS011;10398;52.490;13.434;2022-11-15T16:38:52;22.97;;;11.03;;
20478;SDS011;10398;52.490;13.434;2022-11-15T16:41:18;26.67;;;11.97;;
20478;SDS011;10398;52.490;13.434;2022-11-15T16:43:45;23.53;;;10.90;;
20478;SDS011;10398;52.490;13.434;2022-11-15T16:46:20;23.70;;;11.83;;
20478;SDS011;10398;52.490;13.434;2022-11-15T16:48:51;22.83;;;10.80;;
20478;SDS011;10398;52.490;13.434;2022-11-15T16:51:20;22.67;;;10.63;;
20478;SDS011;10398;52.490;13.434;2022-11-15T16:53:46;26.20;;;11.33;;
20478;SDS011;10398;52.490;13.434;2022-11-15T16:56:36;22.73;;;12.20;;
20478;SDS011;10398;52.490;13.434;2022-11-15T16:59:01;24.30;;;11.70;;
20478;SDS011;10398;52.490;13.434;2022-11-15T17:01:27;24.20;;;11.83;;
20478;SDS011;10398;52.490;13.434;2022-11-15T17:04:01;24.23;;;12.73;;